createdAt,value
2022-10-19T00:01:54.759Z,99497.34
2022-10-19T00:04:23.256Z,99499.94
2022-10-19T00:06:51.574Z,99494.16
2022-10-19T00:09:21.144Z,99503.88
2022-10-19T00:11:51.557Z,99503.97
2022-10-19T00:14:23.621Z,99501.75
2022-10-19T00:16:54.055Z,99515.03
2022-10-19T00:19:25.803Z,99510.81
2022-10-19T00:21:54.722Z,99518.50
2022-10-19T00:24:23.202Z,99516.00
2022-10-19T00:26:51.655Z,99521.94
2022-10-19T00:29:20.193Z,99521.25
2022-10-19T00:31:51.403Z,99516.28
2022-10-19T00:34:20.109Z,99524.72
2022-10-19T00:36:48.572Z,99527.63
2022-10-19T00:39:18.933Z,99526.97
2022-10-19T00:41:49.045Z,99519.94
2022-10-19T00:44:17.299Z,99523.59
2022-10-19T00:46:51.164Z,99529.25
2022-10-19T00:49:24.623Z,99534.16
2022-10-19T00:51:57.153Z,99535.00
2022-10-19T00:54:26.821Z,99537.09
2022-10-19T00:56:57.728Z,99540.28
2022-10-19T00:59:28.134Z,99538.81
2022-10-19T01:01:56.957Z,99545.22
2022-10-19T01:04:27.986Z,99544.06
2022-10-19T01:06:57.926Z,99546.94
2022-10-19T01:09:26.396Z,99544.22
2022-10-19T01:12:26.554Z,99554.50
2022-10-19T01:14:54.958Z,99553.31
2022-10-19T01:17:50.583Z,99552.16
2022-10-19T01:20:39.003Z,99552.22
2022-10-19T01:23:44.357Z,99556.13
2022-10-19T01:26:53.112Z,99553.94
2022-10-19T01:29:54.961Z,99564.22
2022-10-19T01:32:23.276Z,99568.91
2022-10-19T01:34:57.153Z,99570.75
2022-10-19T01:37:43.808Z,99570.34
2022-10-19T01:40:35.282Z,99568.69
2022-10-19T01:43:45.168Z,99571.31
2022-10-19T01:46:38.254Z,99587.16
2022-10-19T01:49:21.729Z,99586.22
2022-10-19T01:54:27.834Z,99580.25
2022-10-19T01:56:59.900Z,99584.91
2022-10-19T01:59:29.134Z,99592.84
2022-10-19T02:01:59.283Z,99595.19
2022-10-19T02:04:28.356Z,99588.88
2022-10-19T02:06:58.231Z,99588.47
2022-10-19T02:09:26.883Z,99594.63
2022-10-19T02:12:01.104Z,99609.19
2022-10-19T02:14:36.266Z,99591.22
2022-10-19T02:17:09.418Z,99599.63
2022-10-19T02:19:38.609Z,99594.34
2022-10-19T02:22:08.243Z,99598.97
2022-10-19T02:24:36.642Z,99599.00
2022-10-19T02:27:07.944Z,99596.25
2022-10-19T02:29:38.882Z,99596.25
2022-10-19T02:32:08.317Z,99590.22
2022-10-19T02:34:37.940Z,99591.00
2022-10-19T02:37:07.832Z,99601.00
2022-10-19T02:39:36.415Z,99590.56
2022-10-19T02:42:23.810Z,99596.94
2022-10-19T02:45:03.738Z,99596.19
2022-10-19T02:47:56.031Z,99587.84
2022-10-19T02:50:25.308Z,99585.06
2022-10-19T02:52:53.740Z,99582.53
2022-10-19T02:55:22.195Z,99574.13
2022-10-19T02:57:50.734Z,99583.03
2022-10-19T03:00:19.243Z,99576.97
2022-10-19T03:02:47.713Z,99573.44
2022-10-19T03:05:16.179Z,99571.91
2022-10-19T03:07:44.619Z,99573.94
2022-10-19T03:10:12.985Z,99572.41
2022-10-19T03:12:41.360Z,99569.38
2022-10-19T03:15:10.423Z,99571.44
2022-10-19T03:17:38.787Z,99568.38
2022-10-19T03:20:07.764Z,99567.34
2022-10-19T03:22:36.147Z,99558.66
2022-10-19T03:25:04.772Z,99558.66
2022-10-19T03:27:33.447Z,99543.66
2022-10-19T03:30:02.051Z,99541.59
2022-10-19T03:32:30.511Z,99538.25
2022-10-19T03:34:58.906Z,99527.06
2022-10-19T03:37:27.310Z,99522.69
2022-10-19T03:39:55.750Z,99517.63
2022-10-19T03:42:24.477Z,99507.41
2022-10-19T03:44:52.860Z,99504.56
2022-10-19T03:47:21.315Z,99499.97
2022-10-19T03:49:51.318Z,99497.13
2022-10-19T03:52:22.236Z,99495.84
2022-10-19T03:54:53.696Z,99493.53
2022-10-19T03:57:22.079Z,99481.00
2022-10-19T03:59:50.440Z,99480.72
2022-10-19T04:02:18.794Z,99482.75
2022-10-19T04:04:47.248Z,99469.44
2022-10-19T04:07:16.614Z,99461.78
2022-10-19T04:09:45.178Z,99458.94
2022-10-19T04:12:13.661Z,99447.69
2022-10-19T04:14:56.432Z,99442.00
2022-10-19T04:17:26.585Z,99440.69
2022-10-19T04:19:55.094Z,99435.56
2022-10-19T04:22:23.627Z,99430.91
2022-10-19T04:24:52.072Z,99419.63
2022-10-19T04:27:20.575Z,99429.28
2022-10-19T04:29:49.041Z,99416.47
2022-10-19T04:32:17.523Z,99419.00
2022-10-19T04:34:45.998Z,99404.16
2022-10-19T04:37:14.670Z,99399.78
2022-10-19T04:39:44.367Z,99406.88
2022-10-19T04:42:12.859Z,99403.25
2022-10-19T04:44:41.327Z,99391.72
2022-10-19T04:47:10.325Z,99394.50
2022-10-19T04:49:38.840Z,99395.72
2022-10-19T04:52:07.766Z,99385.69
2022-10-19T04:54:36.408Z,99391.03
2022-10-19T04:57:05.532Z,99382.53
2022-10-19T04:59:34.116Z,99380.19
2022-10-19T05:02:02.500Z,99380.13
2022-10-19T05:04:30.935Z,99380.06
2022-10-19T05:06:59.368Z,99381.28
2022-10-19T05:09:27.765Z,99357.41
2022-10-19T05:11:56.147Z,99363.00
2022-10-19T05:14:24.632Z,99359.38
2022-10-19T05:16:53.063Z,99347.03
2022-10-19T05:19:21.599Z,99356.94
2022-10-19T05:21:50.041Z,99339.72
2022-10-19T05:24:18.506Z,99340.41
2022-10-19T05:26:46.959Z,99343.44
2022-10-19T05:29:16.028Z,99344.44
2022-10-19T05:31:44.537Z,99342.88
2022-10-19T05:34:12.924Z,99337.69
2022-10-19T05:36:42.165Z,99338.88
2022-10-19T05:39:19.817Z,99334.69
2022-10-19T05:41:49.218Z,99330.56
2022-10-19T05:44:20.671Z,99329.19
2022-10-19T05:46:50.956Z,99327.91
2022-10-19T05:52:11.607Z,99328.63
2022-10-19T05:54:41.932Z,99331.66
2022-10-19T05:57:24.335Z,99322.13
2022-10-19T06:00:02.670Z,99324.94
2022-10-19T06:02:35.039Z,99325.38
2022-10-19T06:05:03.668Z,99315.31
2022-10-19T06:07:32.482Z,99314.78
2022-10-19T06:10:01.163Z,99310.44
2022-10-19T06:12:29.604Z,99310.13
2022-10-19T06:15:03.542Z,99296.78
2022-10-19T06:17:32.221Z,99300.59
2022-10-19T06:20:00.927Z,99289.31
2022-10-19T06:22:29.312Z,99290.31
2022-10-19T06:24:57.744Z,99293.13
2022-10-19T06:27:26.155Z,99291.31
2022-10-19T06:29:54.623Z,99283.28
2022-10-19T06:32:23.276Z,99281.66
2022-10-19T06:34:55.749Z,99285.69
2022-10-19T06:37:25.236Z,99274.81
2022-10-19T06:39:53.685Z,99263.97
2022-10-19T06:42:22.107Z,99269.13
2022-10-19T06:44:50.555Z,99263.91
2022-10-19T06:47:18.959Z,99258.47
2022-10-19T06:49:47.428Z,99257.19
2022-10-19T06:52:15.893Z,99252.00
2022-10-19T06:54:44.387Z,99251.66
2022-10-19T06:57:12.953Z,99254.91
2022-10-19T06:59:41.405Z,99243.31
2022-10-19T07:02:12.777Z,99242.97
2022-10-19T07:04:41.249Z,99229.41
2022-10-19T07:07:09.737Z,99237.34
2022-10-19T07:09:38.211Z,99230.16
2022-10-19T07:12:06.813Z,99228.22
2022-10-19T07:14:39.797Z,99229.09
2022-10-19T07:17:13.249Z,99230.75
2022-10-19T07:19:41.692Z,99220.50
2022-10-19T07:22:10.268Z,99216.94
2022-10-19T07:24:39.511Z,99215.22
2022-10-19T07:27:08.001Z,99219.88
2022-10-19T07:29:36.506Z,99216.72
2022-10-19T07:32:05.109Z,99216.50
2022-10-19T07:34:33.586Z,99206.00
2022-10-19T07:37:02.040Z,99205.00
2022-10-19T07:39:30.466Z,99208.81
2022-10-19T07:41:58.996Z,99206.75
2022-10-19T07:44:27.622Z,99205.00
2022-10-19T07:46:56.937Z,99199.38
2022-10-19T07:49:25.619Z,99202.19
2022-10-19T07:51:56.122Z,99195.78
2022-10-19T07:54:25.562Z,99198.84
2022-10-19T07:56:54.010Z,99189.59
2022-10-19T07:59:22.534Z,99190.66
2022-10-19T08:01:51.434Z,99187.09
2022-10-19T08:07:08.321Z,99185.78
2022-10-19T08:09:53.932Z,99177.88
2022-10-19T08:12:22.884Z,99179.72
2022-10-19T08:14:51.307Z,99172.56
2022-10-19T08:17:19.779Z,99174.63
2022-10-19T08:19:48.844Z,99172.78
2022-10-19T08:22:17.331Z,99169.75
2022-10-19T08:24:45.844Z,99173.88
2022-10-19T08:27:15.805Z,99172.34
2022-10-19T08:29:44.241Z,99172.13
2022-10-19T08:32:12.783Z,99168.34
2022-10-19T08:34:41.387Z,99173.78
2022-10-19T08:37:19.867Z,99157.63
2022-10-19T08:39:54.653Z,99162.28
2022-10-19T08:42:50.565Z,99168.47
2022-10-19T08:45:53.334Z,99171.81
2022-10-19T08:48:34.522Z,99169.53
2022-10-19T08:51:04.152Z,99170.09
2022-10-19T08:53:44.929Z,99177.03
2022-10-19T08:56:49.316Z,99175.50
2022-10-19T08:59:34.723Z,99174.28
2022-10-19T09:02:03.166Z,99181.00
2022-10-19T09:04:39.607Z,99187.72
2022-10-19T09:07:26.221Z,99185.25
2022-10-19T09:10:05.629Z,99182.00
2022-10-19T09:12:42.777Z,99184.03
2022-10-19T09:15:23.364Z,99185.88
2022-10-19T09:17:52.251Z,99185.66
2022-10-19T09:20:55.127Z,99184.91
2022-10-19T09:23:42.700Z,99192.13
2022-10-19T09:26:20.594Z,99196.56
2022-10-19T09:28:57.444Z,99201.22
2022-10-19T09:31:39.632Z,99195.34
2022-10-19T09:34:24.263Z,99194.91
2022-10-19T09:36:59.913Z,99201.41
2022-10-19T09:39:30.875Z,99196.41
2022-10-19T09:42:01.067Z,99199.28
2022-10-19T09:44:29.680Z,99210.66
2022-10-19T09:47:25.952Z,99204.13
2022-10-19T09:50:09.779Z,99209.84
2022-10-19T09:52:43.500Z,99218.66
2022-10-19T09:55:39.829Z,99212.13
2022-10-19T09:58:20.245Z,99216.09
2022-10-19T10:00:58.913Z,99219.50
2022-10-19T10:03:37.115Z,99212.94
2022-10-19T10:06:17.591Z,99218.44
2022-10-19T10:08:53.551Z,99221.09
2022-10-19T10:11:39.448Z,99225.03
2022-10-19T10:14:22.524Z,99234.81
2022-10-19T10:17:03.023Z,99226.19
2022-10-19T10:19:33.896Z,99231.41
2022-10-19T10:22:04.286Z,99240.97
2022-10-19T10:24:34.428Z,99247.16
2022-10-19T10:27:07.731Z,99243.66
2022-10-19T10:29:40.832Z,99242.47
2022-10-19T10:32:20.650Z,99246.38
2022-10-19T10:35:01.381Z,99247.72
2022-10-19T10:37:38.907Z,99253.91
2022-10-19T10:40:21.203Z,99256.25
2022-10-19T10:42:54.515Z,99256.59
2022-10-19T10:45:33.146Z,99250.03
2022-10-19T10:48:16.630Z,99252.38
2022-10-19T10:50:46.229Z,99256.78
2022-10-19T10:53:38.665Z,99249.94
2022-10-19T10:56:20.603Z,99255.09
2022-10-19T10:59:08.901Z,99263.31
2022-10-19T11:01:46.469Z,99261.81
2022-10-19T11:04:27.356Z,99260.81
2022-10-19T11:07:21.790Z,99259.84
2022-10-19T11:10:03.555Z,99261.91
2022-10-19T11:12:43.072Z,99259.63
2022-10-19T11:15:22.926Z,99261.69
2022-10-19T11:18:18.629Z,99260.72
2022-10-19T11:21:07.161Z,99265.59
2022-10-19T11:23:41.414Z,99273.47
2022-10-19T11:26:22.759Z,99267.09
2022-10-19T11:28:58.240Z,99271.94
2022-10-19T11:31:50.683Z,99277.31
2022-10-19T11:34:28.332Z,99278.88
2022-10-19T11:37:21.114Z,99288.03
2022-10-19T11:40:05.907Z,99288.78
2022-10-19T11:43:06.546Z,99300.78
2022-10-19T11:45:49.875Z,99308.41
2022-10-19T11:48:35.080Z,99311.47
2022-10-19T11:51:30.714Z,99316.56
2022-10-19T11:54:14.528Z,99316.03
2022-10-19T11:57:05.480Z,99316.03
2022-10-19T11:59:44.864Z,99325.19
2022-10-19T12:02:45.432Z,99323.41
2022-10-19T12:05:22.793Z,99327.72
2022-10-19T12:08:06.066Z,99336.63
2022-10-19T12:10:54.554Z,99334.09
2022-10-19T12:13:47.914Z,99338.66
2022-10-19T12:16:18.618Z,99354.91
2022-10-19T12:18:48.852Z,99345.25
2022-10-19T12:21:30.346Z,99351.84
2022-10-19T12:24:02.538Z,99366.59
2022-10-19T12:26:35.813Z,99371.69
2022-10-19T12:29:11.220Z,99371.44
2022-10-19T12:31:39.974Z,99377.28
2022-10-19T12:34:29.589Z,99384.34
2022-10-19T12:37:19.659Z,99390.19
2022-10-19T12:39:57.808Z,99400.34
2022-10-19T12:42:52.520Z,99409.25
2022-10-19T12:45:40.744Z,99408.22
2022-10-19T12:48:12.177Z,99410.25
2022-10-19T12:51:16.483Z,99420.44
2022-10-19T12:53:49.763Z,99414.56
2022-10-19T12:56:27.365Z,99421.94
2022-10-19T12:59:00.894Z,99428.03
2022-10-19T13:01:43.652Z,99429.03
2022-10-19T13:04:16.743Z,99437.94
2022-10-19T13:06:52.164Z,99439.19
2022-10-19T13:09:38.850Z,99432.78
2022-10-19T13:12:20.010Z,99437.59
2022-10-19T13:14:53.886Z,99446.00
2022-10-19T13:17:55.372Z,99454.38
2022-10-19T13:20:25.865Z,99456.41
2022-10-19T13:23:06.233Z,99457.69
2022-10-19T13:25:41.723Z,99460.97
2022-10-19T13:28:19.753Z,99457.16
2022-10-19T13:30:48.199Z,99458.16
2022-10-19T13:33:25.891Z,99467.03
2022-10-19T13:36:00.400Z,99472.63
2022-10-19T13:41:17.784Z,99482.03
2022-10-19T13:44:04.310Z,99482.53
2022-10-19T13:46:32.725Z,99481.00
2022-10-19T13:49:12.593Z,99475.41
2022-10-19T13:51:43.535Z,99485.06
2022-10-19T13:55:11.980Z,99492.69
2022-10-19T13:58:22.882Z,99488.84
2022-10-19T14:01:23.260Z,99499.28
2022-10-19T14:04:19.521Z,99508.66
2022-10-19T14:06:55.271Z,99495.94
2022-10-19T14:09:57.166Z,99498.44
2022-10-19T14:12:28.397Z,99498.94
2022-10-19T14:14:56.952Z,99500.19
2022-10-19T14:17:31.244Z,99498.66
2022-10-19T14:20:00.957Z,99490.00
2022-10-19T14:22:31.123Z,99500.44
2022-10-19T14:25:07.438Z,99503.22
2022-10-19T14:27:36.881Z,99498.91
2022-10-19T14:30:06.047Z,99498.13
2022-10-19T14:32:36.412Z,99499.41
2022-10-19T14:35:20.711Z,99502.97
2022-10-19T14:37:49.774Z,99502.97
2022-10-19T14:40:30.665Z,99502.19
2022-10-19T14:43:01.412Z,99502.69
2022-10-19T14:45:34.097Z,99499.88
2022-10-19T14:48:05.854Z,99498.34
2022-10-19T14:50:46.602Z,99499.88
2022-10-19T14:53:42.279Z,99502.41
2022-10-19T14:56:21.420Z,99509.28
2022-10-19T14:59:04.666Z,99504.94
2022-10-19T15:01:33.233Z,99508.25
2022-10-19T15:04:01.863Z,99510.00
2022-10-19T15:06:34.237Z,99504.13
2022-10-19T15:09:15.338Z,99506.66
2022-10-19T15:11:54.736Z,99500.81
2022-10-19T15:14:29.636Z,99506.59
2022-10-19T15:17:03.282Z,99503.53
2022-10-19T15:19:42.343Z,99512.91
2022-10-19T15:22:10.667Z,99510.59
2022-10-19T15:24:39.861Z,99513.13
2022-10-19T15:27:33.211Z,99519.22
2022-10-19T15:30:19.623Z,99519.69
2022-10-19T15:32:55.815Z,99519.44
2022-10-19T15:35:34.284Z,99513.56
2022-10-19T15:38:25.396Z,99504.91
2022-10-19T15:41:27.372Z,99502.88
2022-10-19T15:43:59.885Z,99509.44
2022-10-19T15:49:31.741Z,99510.91
2022-10-19T15:52:00.118Z,99514.69
2022-10-19T15:54:28.529Z,99507.28
2022-10-19T15:56:57.458Z,99508.00
2022-10-19T15:59:25.932Z,99518.91
2022-10-19T16:01:56.123Z,99519.13
2022-10-19T16:04:24.927Z,99527.22
2022-10-19T16:06:53.470Z,99521.34
2022-10-19T16:09:24.563Z,99526.66
2022-10-19T16:11:57.737Z,99519.56
2022-10-19T16:14:27.758Z,99521.31
2022-10-19T16:17:00.022Z,99515.44
2022-10-19T16:19:28.566Z,99519.47
2022-10-19T16:21:57.010Z,99510.81
2022-10-19T16:24:25.703Z,99516.13
2022-10-19T16:26:54.178Z,99512.56
2022-10-19T16:29:25.487Z,99514.59
2022-10-19T16:31:57.462Z,99514.31
2022-10-19T16:34:26.145Z,99512.00
2022-10-19T16:36:54.790Z,99506.91
2022-10-19T16:39:23.272Z,99496.25
2022-10-19T16:41:51.688Z,99500.78
2022-10-19T16:44:20.340Z,99495.69
2022-10-19T16:46:48.765Z,99489.84
2022-10-19T16:49:17.208Z,99487.03
2022-10-19T16:51:45.693Z,99481.97
2022-10-19T16:54:14.308Z,99483.22
2022-10-19T16:56:48.067Z,99481.69
2022-10-19T16:59:19.670Z,99477.84
2022-10-19T17:01:48.842Z,99475.53
2022-10-19T17:04:21.096Z,99478.84
2022-10-19T17:06:49.651Z,99479.28
2022-10-19T17:12:07.227Z,99478.75
2022-10-19T17:14:35.802Z,99472.88
2022-10-19T17:17:04.365Z,99473.09
2022-10-19T17:19:33.179Z,99473.59
2022-10-19T17:22:03.092Z,99475.34
2022-10-19T17:24:32.371Z,99470.22
2022-10-19T17:27:05.867Z,99471.47
2022-10-19T17:29:34.382Z,99464.84
2022-10-19T17:32:02.779Z,99472.44
2022-10-19T17:34:31.260Z,99462.53
2022-10-19T17:36:59.826Z,99459.75
2022-10-19T17:39:29.974Z,99463.81
2022-10-19T17:42:02.402Z,99457.47
2022-10-19T17:44:32.251Z,99466.59
2022-10-19T17:47:01.873Z,99463.53
2022-10-19T17:49:30.839Z,99462.75
2022-10-19T17:51:59.542Z,99467.25
2022-10-19T17:54:28.186Z,99468.53
2022-10-19T17:56:56.710Z,99468.25
2022-10-19T17:59:34.568Z,99470.00
2022-10-19T18:02:04.853Z,99469.22
2022-10-19T18:04:33.399Z,99470.97
2022-10-19T18:07:01.809Z,99471.44
2022-10-19T18:09:30.203Z,99475.22
2022-10-19T18:12:01.368Z,99467.34
2022-10-19T18:14:31.799Z,99467.06
2022-10-19T18:17:00.163Z,99470.34
2022-10-19T18:19:28.557Z,99457.66
2022-10-19T18:21:57.041Z,99467.28
2022-10-19T18:24:25.546Z,99458.63
2022-10-19T18:26:54.088Z,99459.13
2022-10-19T18:29:25.811Z,99454.03
2022-10-19T18:31:54.767Z,99451.72
2022-10-19T18:34:26.470Z,99448.94
2022-10-19T18:36:55.663Z,99448.63
2022-10-19T18:39:24.116Z,99447.38
2022-10-19T18:41:55.329Z,99452.19
2022-10-19T18:44:26.983Z,99450.66
2022-10-19T18:46:55.819Z,99450.38
2022-10-19T18:49:25.141Z,99438.44
2022-10-19T18:51:55.558Z,99446.53
2022-10-19T18:54:25.724Z,99446.25
2022-10-19T18:56:54.107Z,99443.47
2022-10-19T18:59:22.617Z,99436.84
2022-10-19T19:01:51.280Z,99433.78
2022-10-19T19:04:19.818Z,99430.22
2022-10-19T19:06:48.323Z,99423.59
2022-10-19T19:09:18.297Z,99424.84
2022-10-19T19:11:46.751Z,99421.03
2022-10-19T19:14:18.534Z,99425.81
2022-10-19T19:16:47.366Z,99417.19
2022-10-19T19:19:19.231Z,99419.97
2022-10-19T19:21:48.324Z,99419.19
2022-10-19T19:24:19.495Z,99414.13
2022-10-19T19:26:51.227Z,99418.94
2022-10-19T19:29:20.370Z,99415.06
2022-10-19T19:31:49.695Z,99418.34
2022-10-19T19:34:18.489Z,99415.28
2022-10-19T19:36:50.443Z,99417.28
2022-10-19T19:39:21.584Z,99418.06
2022-10-19T19:41:51.145Z,99422.09
2022-10-19T19:44:20.419Z,99414.50
2022-10-19T19:46:48.950Z,99411.72
2022-10-19T19:49:17.797Z,99422.38
2022-10-19T19:51:46.152Z,99416.03
2022-10-19T19:54:14.586Z,99424.41
2022-10-19T19:56:45.678Z,99411.72
2022-10-19T19:59:14.566Z,99410.94
2022-10-19T20:01:44.701Z,99412.69
2022-10-19T20:04:14.038Z,99409.63
2022-10-19T20:06:45.431Z,99406.84
2022-10-19T20:09:14.026Z,99403.75
2022-10-19T20:11:42.983Z,99399.44
2022-10-19T20:14:12.473Z,99402.22
2022-10-19T20:16:41.487Z,99398.69
2022-10-19T20:19:13.183Z,99394.31
2022-10-19T20:21:42.362Z,99388.75
2022-10-19T20:24:10.916Z,99386.47
2022-10-19T20:26:39.541Z,99386.94
2022-10-19T20:29:08.233Z,99382.63
2022-10-19T20:31:40.302Z,99378.78
2022-10-19T20:34:14.745Z,99381.56
2022-10-19T20:36:43.871Z,99382.06
2022-10-19T20:39:12.773Z,99383.31
2022-10-19T20:41:41.288Z,99384.56
2022-10-19T20:44:09.741Z,99378.22
2022-10-19T20:46:38.264Z,99378.22
2022-10-19T20:49:08.297Z,99381.00
2022-10-19T20:51:38.054Z,99376.69
2022-10-19T20:54:09.614Z,99375.16
2022-10-19T20:56:40.547Z,99379.47
2022-10-19T20:59:15.347Z,99379.16
2022-10-19T21:01:45.521Z,99380.72
2022-10-19T21:04:16.115Z,99379.16
2022-10-19T21:06:49.516Z,99365.25
2022-10-19T21:09:21.269Z,99368.03
2022-10-19T21:11:54.000Z,99368.03
2022-10-19T21:14:28.136Z,99364.47
2022-10-19T21:17:01.851Z,99368.03
2022-10-19T21:19:31.838Z,99368.50
2022-10-19T21:22:07.146Z,99364.19
2022-10-19T21:24:37.380Z,99363.91
2022-10-19T21:27:08.593Z,99359.59
2022-10-19T21:29:38.113Z,99361.59
2022-10-19T21:32:06.538Z,99360.06
2022-10-19T21:34:35.033Z,99358.53
2022-10-19T21:37:03.568Z,99360.56
2022-10-19T21:39:31.932Z,99366.13
2022-10-19T21:42:00.304Z,99373.72
2022-10-19T21:44:28.778Z,99374.97
2022-10-19T21:46:57.221Z,99376.22
2022-10-19T21:49:25.606Z,99385.84
2022-10-19T21:51:55.689Z,99382.75
2022-10-19T21:54:25.790Z,99384.03
2022-10-19T21:56:56.035Z,99385.28
2022-10-19T21:59:24.732Z,99389.59
2022-10-19T22:01:55.451Z,99392.09
2022-10-19T22:04:24.267Z,99403.72
2022-10-19T22:06:52.689Z,99399.41
2022-10-19T22:09:23.156Z,99395.06
2022-10-19T22:11:51.606Z,99401.91
2022-10-19T22:14:20.094Z,99406.69
2022-10-19T22:16:48.583Z,99407.94
2022-10-19T22:19:17.400Z,99407.47
2022-10-19T22:21:45.842Z,99413.81
2022-10-19T22:24:16.818Z,99412.06
2022-10-19T22:26:48.511Z,99420.72
2022-10-19T22:29:16.981Z,99420.72
2022-10-19T22:31:45.675Z,99432.91
2022-10-19T22:34:18.678Z,99427.63
2022-10-19T22:36:47.550Z,99434.72
2022-10-19T22:39:16.744Z,99442.59
2022-10-19T22:41:45.238Z,99437.78
2022-10-19T22:44:13.691Z,99453.06
2022-10-19T22:46:42.157Z,99451.03
2022-10-19T22:49:10.652Z,99461.69
2022-10-19T22:51:39.094Z,99461.97
2022-10-19T22:54:07.599Z,99457.50
2022-10-19T22:56:36.221Z,99464.59
2022-10-19T22:59:07.406Z,99466.41
2022-10-19T23:01:36.632Z,99475.81
2022-10-19T23:04:05.378Z,99477.38
2022-10-19T23:06:33.868Z,99476.41
2022-10-19T23:09:02.423Z,99478.69
2022-10-19T23:11:30.894Z,99484.59
2022-10-19T23:13:59.447Z,99491.22
2022-10-19T23:19:01.122Z,99492.53
2022-10-19T23:21:29.503Z,99501.19
2022-10-19T23:23:57.921Z,99493.91
2022-10-19T23:26:26.489Z,99501.78
2022-10-19T23:28:55.079Z,99496.50
2022-10-19T23:31:26.952Z,99496.78
2022-10-19T23:33:55.917Z,99503.41
2022-10-19T23:36:27.706Z,99502.91
2022-10-19T23:38:57.681Z,99506.75
2022-10-19T23:41:26.595Z,99511.34
2022-10-19T23:43:55.178Z,99513.94
2022-10-19T23:46:23.711Z,99517.78
2022-10-19T23:48:52.200Z,99523.16
2022-10-19T23:51:22.633Z,99522.22
2022-10-19T23:53:53.131Z,99536.72
2022-10-19T23:56:27.373Z,99530.94
2022-10-19T23:58:57.125Z,99537.56
